Time;durP1;ratioP1;P1;durP2;ratioP2;P2;SDS_P1;SDS_P2;PMS_P1;PMS_P2;Temp;Humidity;BMP_temperature;BMP_pressure;BME280_temperature;BME280_humidity;BME280_pressure;Samples;Min_cycle;Max_cycle;Signal;HPM_P1;HPM_P2
2022/11/09 00:00:52;;;;;;;4.38;1.60;;;15.50;73.50;;;;;;5030559;28;20029;-61
2022/11/09 00:03:18;;;;;;;4.78;1.67;;;15.50;73.50;;;;;;5029464;28;20064;-61
2022/11/09 00:05:53;;;;;;;4.78;1.88;;;15.50;73.50;;;;;;5030191;28;20037;-61
2022/11/09 00:08:19;;;;;;;5.90;2.03;;;15.50;73.40;;;;;;5030045;28;20456;-61
2022/11/09 00:10:45;;;;;;;5.38;1.50;;;15.50;73.40;;;;;;5030132;28;20045;-61
2022/11/09 00:13:10;;;;;;;7.03;2.03;;;15.50;73.40;;;;;;5029811;28;20069;-61
2022/11/09 00:15:36;;;;;;;6.28;1.90;;;15.50;73.30;;;;;;5030494;28;20387;-61
2022/11/09 00:18:02;;;;;;;4.78;1.80;;;15.50;73.40;;;;;;5029167;28;20037;-61
2022/11/09 00:20:27;;;;;;;5.28;1.75;;;15.50;73.40;;;;;;5032198;28;20462;-61
2022/11/09 00:22:53;;;;;;;5.32;1.83;;;15.50;73.50;;;;;;5017051;28;20056;-61
2022/11/09 00:25:19;;;;;;;6.03;1.90;;;15.50;73.50;;;;;;5016764;28;20021;-61
2022/11/09 00:27:44;;;;;;;6.40;2.05;;;15.50;73.50;;;;;;5015000;28;20026;-62
2022/11/09 00:30:10;;;;;;;6.30;2.13;;;15.50;73.50;;;;;;5016154;28;20036;-61
2022/11/09 00:32:36;;;;;;;7.07;2.08;;;15.50;73.50;;;;;;5015419;28;20091;-62
2022/11/09 00:35:02;;;;;;;5.43;1.73;;;15.50;73.50;;;;;;5015480;28;20064;-62
2022/11/09 00:37:31;;;;;;;6.32;1.90;;;15.50;73.50;;;;;;5015304;28;20048;-61
2022/11/09 00:39:56;;;;;;;6.70;1.70;;;15.60;73.50;;;;;;5014292;28;20036;-61
2022/11/09 00:42:22;;;;;;;3.85;1.58;;;15.50;73.50;;;;;;5015549;28;20042;-61
2022/11/09 00:44:49;;;;;;;5.28;2.00;;;15.60;73.60;;;;;;5015988;28;20034;-61
2022/11/09 00:47:15;;;;;;;8.25;1.98;;;15.50;73.50;;;;;;5015934;28;20489;-61
2022/11/09 00:49:41;;;;;;;6.57;2.17;;;15.50;73.50;;;;;;5013727;28;20064;-61
2022/11/09 00:52:07;;;;;;;5.38;1.88;;;15.50;73.50;;;;;;5014692;28;20033;-61
2022/11/09 00:54:33;;;;;;;4.88;1.73;;;15.50;73.50;;;;;;5015244;28;20021;-61
2022/11/09 00:56:59;;;;;;;7.30;2.00;;;15.50;73.40;;;;;;5015126;28;20033;-61
2022/11/09 00:59:25;;;;;;;5.75;1.88;;;15.60;73.40;;;;;;5013084;28;20032;-61
2022/11/09 01:01:50;;;;;;;7.07;2.72;;;15.60;73.50;;;;;;5015820;28;20113;-61
2022/11/09 01:04:17;;;;;;;6.65;1.70;;;15.50;73.40;;;;;;5014673;28;20470;-61
2022/11/09 01:06:42;;;;;;;5.57;1.77;;;15.50;73.40;;;;;;5014435;28;20097;-61
2022/11/09 01:09:09;;;;;;;6.35;1.83;;;15.50;73.40;;;;;;5013460;28;20036;-61
2022/11/09 01:11:36;;;;;;;4.45;1.40;;;15.50;73.40;;;;;;5014284;28;20033;-62
2022/11/09 01:14:02;;;;;;;6.55;1.80;;;15.50;73.50;;;;;;5015390;28;20370;-61
2022/11/09 01:16:28;;;;;;;5.03;1.70;;;15.60;73.50;;;;;;5015790;28;20046;-62
2022/11/09 01:18:56;;;;;;;5.18;1.83;;;15.50;73.50;;;;;;5012642;28;20025;-62
2022/11/09 01:21:25;;;;;;;8.27;1.90;;;15.50;73.50;;;;;;5013599;28;20053;-61
2022/11/09 01:23:51;;;;;;;6.60;2.45;;;15.50;73.60;;;;;;5013671;28;20113;-61
2022/11/09 01:26:18;;;;;;;7.32;1.85;;;15.50;73.70;;;;;;5012419;28;20062;-61
2022/11/09 01:28:43;;;;;;;4.65;1.90;;;15.50;73.80;;;;;;5015640;28;20029;-61
2022/11/09 01:31:15;;;;;;;6.55;2.13;;;15.50;74.00;;;;;;5016550;28;20529;-61
2022/11/09 01:33:41;;;;;;;6.10;2.08;;;15.50;74.20;;;;;;5013608;28;20034;-61
2022/11/09 01:36:10;;;;;;;8.68;2.13;;;15.50;74.40;;;;;;5016522;28;20057;-61
2022/11/09 01:38:37;;;;;;;5.88;1.95;;;15.50;74.50;;;;;;5012516;28;20129;-61
2022/11/09 01:41:05;;;;;;;7.40;2.10;;;15.40;74.40;;;;;;5013744;28;20447;-61
2022/11/09 01:43:33;;;;;;;4.30;1.75;;;15.40;74.50;;;;;;5011357;28;20032;-61
2022/11/09 01:46:07;;;;;;;5.15;1.92;;;15.40;74.60;;;;;;5015123;28;20026;-61
2022/11/09 01:48:39;;;;;;;5.32;1.60;;;15.40;75.00;;;;;;5016550;28;20376;-61
2022/11/09 01:51:17;;;;;;;6.38;1.60;;;15.40;75.20;;;;;;5015804;28;20462;-61
2022/11/09 01:53:48;;;;;;;6.80;1.90;;;15.30;75.30;;;;;;5004909;28;20076;-61
2022/11/09 01:56:17;;;;;;;8.00;2.15;;;15.30;75.40;;;;;;5015002;28;20072;-61
2022/11/09 01:58:51;;;;;;;5.38;1.70;;;15.30;75.50;;;;;;5031731;28;20026;-62
2022/11/09 02:01:19;;;;;;;6.05;1.88;;;15.30;75.60;;;;;;5014472;28;20022;-62
2022/11/09 02:03:52;;;;;;;6.28;1.77;;;15.30;75.80;;;;;;5015795;28;20328;-62
2022/11/09 02:06:20;;;;;;;5.25;1.50;;;15.30;76.00;;;;;;5016097;28;20057;-61
2022/11/09 02:08:47;;;;;;;7.63;1.77;;;15.30;76.20;;;;;;5016251;28;20033;-61
2022/11/09 02:11:17;;;;;;;8.88;2.03;;;15.30;76.90;;;;;;5013587;28;20037;-61
2022/11/09 02:13:52;;;;;;;6.88;1.90;;;15.30;76.40;;;;;;5014751;28;20403;-61
2022/11/09 02:16:18;;;;;;;6.55;2.35;;;15.30;76.60;;;;;;5014467;28;20025;-61
2022/11/09 02:18:55;;;;;;;8.88;2.40;;;15.20;76.60;;;;;;5015170;28;20034;-61
2022/11/09 02:21:25;;;;;;;7.07;1.92;;;15.20;76.70;;;;;;5014632;28;20049;-61
2022/11/09 02:23:53;;;;;;;7.97;2.38;;;15.20;76.70;;;;;;5014835;28;20449;-61
2022/11/09 02:26:34;;;;;;;8.43;2.33;;;15.20;76.80;;;;;;5026541;28;20116;-61
2022/11/09 02:29:04;;;;;;;7.25;2.13;;;15.20;76.80;;;;;;5032509;28;20091;-61
2022/11/09 02:31:35;;;;;;;6.50;2.17;;;15.20;76.80;;;;;;5023460;28;20026;-61
2022/11/09 02:34:14;;;;;;;5.57;2.13;;;15.20;76.90;;;;;;5022381;28;20510;-61
2022/11/09 02:36:42;;;;;;;5.90;1.90;;;15.20;77.00;;;;;;5025963;28;20021;-61
2022/11/09 02:39:13;;;;;;;5.30;2.20;;;15.20;77.00;;;;;;5021238;28;20029;-61
2022/11/09 02:41:46;;;;;;;5.13;2.05;;;15.10;76.90;;;;;;5016718;28;20459;-61
2022/11/09 02:44:14;;;;;;;6.75;2.13;;;15.20;77.00;;;;;;5017807;28;20431;-61
2022/11/09 02:46:40;;;;;;;5.25;2.25;;;15.10;77.00;;;;;;5018981;28;20397;-61
2022/11/09 02:49:06;;;;;;;7.25;2.10;;;15.10;77.00;;;;;;5006043;28;20244;-61
2022/11/09 02:51:34;;;;;;;8.13;2.20;;;15.10;77.00;;;;;;5015448;28;20513;-62
2022/11/09 02:54:00;;;;;;;7.10;2.00;;;15.20;77.00;;;;;;5028533;28;20062;-61
2022/11/09 02:56:25;;;;;;;5.80;1.77;;;15.20;77.00;;;;;;5013927;28;20054;-61
2022/11/09 02:58:51;;;;;;;6.40;2.10;;;15.10;76.90;;;;;;5025871;28;20460;-61
2022/11/09 03:01:17;;;;;;;6.22;1.95;;;15.10;76.90;;;;;;5022641;28;20026;-61
2022/11/09 03:03:43;;;;;;;5.28;1.90;;;15.10;76.90;;;;;;5026526;28;20013;-61
2022/11/09 03:06:11;;;;;;;6.88;1.88;;;15.10;76.90;;;;;;5015131;28;20022;-61
2022/11/09 03:08:37;;;;;;;6.97;2.05;;;15.10;76.90;;;;;;5030069;28;20052;-62
2022/11/09 03:11:04;;;;;;;5.95;2.08;;;15.20;76.90;;;;;;5026124;28;20033;-61
2022/11/09 03:13:31;;;;;;;7.75;2.10;;;15.10;76.80;;;;;;5025493;28;20032;-62
2022/11/09 03:15:57;;;;;;;6.78;1.73;;;15.10;76.80;;;;;;5027663;28;20026;-61
2022/11/09 03:18:22;;;;;;;5.68;1.83;;;15.10;76.80;;;;;;5023355;28;20040;-61
2022/11/09 03:20:48;;;;;;;5.93;1.98;;;15.10;76.70;;;;;;5039500;28;20050;-61
2022/11/09 03:23:15;;;;;;;6.95;1.70;;;15.10;76.70;;;;;;5013673;28;20031;-61
2022/11/09 03:25:41;;;;;;;5.43;2.10;;;15.10;76.70;;;;;;5012987;28;20367;-61
2022/11/09 03:28:07;;;;;;;7.10;1.95;;;15.10;76.70;;;;;;5013857;28;20030;-61
2022/11/09 03:30:34;;;;;;;6.38;1.90;;;15.10;76.80;;;;;;5010187;28;20049;-61
2022/11/09 03:33:02;;;;;;;8.48;2.63;;;15.10;76.80;;;;;;5014512;28;20030;-61
2022/11/09 03:35:28;;;;;;;6.43;1.73;;;15.10;76.70;;;;;;5025520;28;20124;-62
2022/11/09 03:37:54;;;;;;;5.95;1.60;;;15.10;76.70;;;;;;5034448;28;20164;-61
2022/11/09 03:40:20;;;;;;;6.13;2.10;;;15.10;76.60;;;;;;5032139;28;20022;-61
2022/11/09 03:42:48;;;;;;;6.47;2.03;;;15.10;76.60;;;;;;5019043;28;20018;-61
2022/11/09 03:45:15;;;;;;;5.30;1.73;;;15.10;76.60;;;;;;5023738;28;20179;-61
2022/11/09 03:47:45;;;;;;;6.38;1.88;;;15.10;76.50;;;;;;5012241;28;20125;-61
2022/11/09 03:50:12;;;;;;;7.82;2.10;;;15.10;76.40;;;;;;5020870;28;20037;-61
2022/11/09 03:52:37;;;;;;;7.72;1.92;;;15.10;76.40;;;;;;5014062;28;20030;-61
2022/11/09 03:55:04;;;;;;;6.85;1.85;;;15.10;76.40;;;;;;5021447;28;20408;-62
2022/11/09 03:57:30;;;;;;;5.18;1.90;;;15.10;76.30;;;;;;5023753;28;20033;-61
2022/11/09 03:59:56;;;;;;;6.82;2.08;;;15.10;76.30;;;;;;5029026;28;20087;-62
2022/11/09 04:02:22;;;;;;;5.00;1.58;;;15.10;76.30;;;;;;5021656;28;20036;-61
2022/11/09 04:04:47;;;;;;;6.28;1.58;;;15.10;76.30;;;;;;5021134;28;20030;-61
2022/11/09 04:07:13;;;;;;;7.47;2.00;;;15.10;76.20;;;;;;5026891;28;20105;-61
2022/11/09 04:09:39;;;;;;;6.65;2.13;;;15.10;76.20;;;;;;5034435;28;20025;-62
2022/11/09 04:12:05;;;;;;;6.65;2.10;;;15.10;76.20;;;;;;5024151;28;20065;-61
2022/11/09 04:14:31;;;;;;;8.20;1.80;;;15.10;76.10;;;;;;5030718;28;20034;-62
2022/11/09 04:16:56;;;;;;;5.72;1.77;;;15.10;76.70;;;;;;5021749;28;20128;-61
2022/11/09 04:19:23;;;;;;;8.50;2.05;;;15.00;75.90;;;;;;5021186;28;20061;-61
2022/11/09 04:21:49;;;;;;;4.93;1.60;;;15.00;75.90;;;;;;5028440;28;20060;-61
2022/11/09 04:24:14;;;;;;;5.55;1.63;;;15.00;75.90;;;;;;5024780;28;20447;-61
2022/11/09 04:26:40;;;;;;;7.28;1.65;;;15.00;75.90;;;;;;5031980;28;20021;-61
2022/11/09 04:29:06;;;;;;;5.30;1.80;;;15.00;75.90;;;;;;5022919;28;20026;-61
2022/11/09 04:31:32;;;;;;;5.38;1.75;;;14.90;75.70;;;;;;5030397;28;20033;-61
2022/11/09 04:33:57;;;;;;;7.15;2.03;;;14.90;75.70;;;;;;5013958;28;20130;-61
2022/11/09 04:36:23;;;;;;;6.60;1.90;;;14.90;75.70;;;;;;5027515;28;20076;-61
2022/11/09 04:38:49;;;;;;;6.05;1.95;;;14.90;75.70;;;;;;5026361;28;20107;-61
2022/11/09 04:41:14;;;;;;;9.85;1.88;;;14.90;75.60;;;;;;5033787;28;20339;-61
2022/11/09 04:43:40;;;;;;;7.75;1.80;;;14.90;75.60;;;;;;5023522;28;20025;-61
2022/11/09 04:46:06;;;;;;;7.43;1.70;;;14.90;75.60;;;;;;5029944;28;20411;-62
2022/11/09 04:48:32;;;;;;;8.43;1.90;;;14.90;75.60;;;;;;5020995;28;20080;-61
2022/11/09 04:51:03;;;;;;;7.68;2.13;;;14.90;75.50;;;;;;5012681;28;20073;-62
2022/11/09 04:53:29;;;;;;;5.60;1.65;;;14.80;76.20;;;;;;5022873;28;20091;-62
2022/11/09 04:55:56;;;;;;;4.97;1.55;;;14.80;75.50;;;;;;5014006;28;20042;-63
2022/11/09 04:58:22;;;;;;;6.22;1.48;;;14.80;75.50;;;;;;5030459;28;20462;-62
2022/11/09 05:00:47;;;;;;;7.60;1.65;;;14.80;75.50;;;;;;5033523;28;20087;-62
2022/11/09 05:03:13;;;;;;;6.82;1.50;;;14.80;75.50;;;;;;5025405;28;20399;-62
2022/11/09 05:05:40;;;;;;;8.07;1.90;;;14.80;75.50;;;;;;5026740;28;20030;-62
2022/11/09 05:08:07;;;;;;;6.20;1.65;;;14.80;75.50;;;;;;5032719;28;20021;-62
2022/11/09 05:10:33;;;;;;;9.35;2.03;;;14.80;75.50;;;;;;5024301;28;20355;-62
2022/11/09 05:13:01;;;;;;;9.32;1.90;;;14.80;75.60;;;;;;5017725;28;20409;-62
2022/11/09 05:15:27;;;;;;;6.68;1.77;;;14.70;75.50;;;;;;5028784;28;20104;-63
2022/11/09 05:17:53;;;;;;;6.40;1.80;;;14.70;75.60;;;;;;5022623;28;20113;-62
2022/11/09 05:20:19;;;;;;;8.43;1.92;;;14.70;75.50;;;;;;5032883;28;20431;-62
2022/11/09 05:25:29;;;;;;;6.45;1.80;;;14.80;75.50;;;;;;5033989;28;20030;-62
2022/11/09 05:27:54;;;;;;;7.68;1.77;;;14.80;75.50;;;;;;5033086;28;20041;-62
2022/11/09 05:30:20;;;;;;;10.02;2.42;;;14.70;75.50;;;;;;5029593;28;20041;-63
2022/11/09 05:32:46;;;;;;;6.65;1.92;;;14.80;75.60;;;;;;5032333;28;20033;-64
2022/11/09 05:35:12;;;;;;;8.75;1.92;;;14.70;75.60;;;;;;5015538;28;20045;-62
2022/11/09 05:37:38;;;;;;;7.53;2.20;;;14.70;75.70;;;;;;5024925;28;20025;-62
2022/11/09 05:40:06;;;;;;;6.95;1.52;;;14.70;75.70;;;;;;5027235;28;20160;-63
2022/11/09 05:42:31;;;;;;;6.63;2.10;;;14.70;75.80;;;;;;5029102;28;20022;-62
2022/11/09 05:44:57;;;;;;;6.32;1.85;;;14.70;75.90;;;;;;5025114;28;20061;-63
2022/11/09 05:47:23;;;;;;;8.35;2.00;;;14.70;75.90;;;;;;5036738;28;20025;-62
2022/11/09 05:49:48;;;;;;;6.95;2.03;;;14.60;75.80;;;;;;5026837;28;20044;-62
2022/11/09 05:52:14;;;;;;;9.98;2.00;;;14.70;75.90;;;;;;5024719;28;20443;-62
2022/11/09 05:54:40;;;;;;;11.05;2.10;;;14.60;75.90;;;;;;5020146;28;20124;-62
2022/11/09 05:57:05;;;;;;;6.03;1.88;;;14.60;75.90;;;;;;5015978;28;20058;-62
2022/11/09 05:59:31;;;;;;;6.80;2.40;;;14.60;76.00;;;;;;5023988;28;20037;-62
2022/11/09 06:01:57;;;;;;;6.60;2.17;;;14.60;76.00;;;;;;5030760;28;20025;-62
2022/11/09 06:04:22;;;;;;;9.13;1.70;;;14.60;76.00;;;;;;5016454;28;20025;-62
2022/11/09 06:06:48;;;;;;;9.57;1.83;;;14.60;76.10;;;;;;5024057;28;20022;-63
2022/11/09 06:09:13;;;;;;;11.45;2.33;;;14.50;76.10;;;;;;5014730;28;20160;-63
2022/11/09 06:11:39;;;;;;;7.13;1.85;;;14.50;76.10;;;;;;5029413;28;20041;-62
2022/11/09 06:14:05;;;;;;;7.75;2.08;;;14.50;76.20;;;;;;5022273;28;20026;-62
2022/11/09 06:16:30;;;;;;;10.07;2.17;;;14.50;76.20;;;;;;5017853;28;20093;-62
2022/11/09 06:18:56;;;;;;;8.70;2.00;;;14.50;76.20;;;;;;5027223;28;20053;-63
2022/11/09 06:21:22;;;;;;;9.77;1.90;;;14.50;76.20;;;;;;5029025;28;20116;-62
2022/11/09 06:23:48;;;;;;;8.93;2.55;;;14.50;76.30;;;;;;5024361;28;20105;-62
2022/11/09 06:26:13;;;;;;;7.97;2.22;;;14.40;76.30;;;;;;5016086;28;20033;-62
2022/11/09 06:28:40;;;;;;;6.53;1.60;;;14.50;76.40;;;;;;5024225;28;20057;-62
2022/11/09 06:31:07;;;;;;;8.23;1.67;;;14.50;76.50;;;;;;5016622;28;20346;-62
2022/11/09 06:33:34;;;;;;;6.57;1.88;;;14.40;76.50;;;;;;5032336;28;20037;-62
2022/11/09 06:36:01;;;;;;;4.20;1.30;;;14.40;76.50;;;;;;5026599;28;20026;-62
2022/11/09 06:38:27;;;;;;;7.10;2.05;;;14.40;76.50;;;;;;5026689;28;20033;-62
2022/11/09 06:40:54;;;;;;;6.93;2.13;;;14.40;76.50;;;;;;5033558;28;20438;-62
2022/11/09 06:43:20;;;;;;;5.95;2.20;;;14.40;76.50;;;;;;5024624;28;20034;-62
2022/11/09 06:45:45;;;;;;;9.55;2.38;;;14.40;76.50;;;;;;5018928;28;20065;-62
2022/11/09 06:48:11;;;;;;;5.55;1.30;;;14.40;76.60;;;;;;5023895;28;20017;-63
2022/11/09 06:50:37;;;;;;;9.50;2.28;;;14.40;76.60;;;;;;5021125;28;20018;-62
2022/11/09 06:53:06;;;;;;;8.80;2.20;;;14.40;76.60;;;;;;5030255;28;20449;-62
2022/11/09 06:55:33;;;;;;;7.28;2.15;;;14.40;76.60;;;;;;5031526;28;20037;-62
2022/11/09 06:57:59;;;;;;;8.63;1.70;;;14.40;76.60;;;;;;5023102;28;20029;-62
2022/11/09 07:00:26;;;;;;;9.35;2.00;;;14.40;76.70;;;;;;5020432;28;20371;-62
2022/11/09 07:02:52;;;;;;;9.65;2.42;;;14.40;76.70;;;;;;5015040;28;20521;-62
2022/11/09 07:05:18;;;;;;;6.93;2.47;;;14.50;76.70;;;;;;5015449;28;20084;-63
2022/11/09 07:07:44;;;;;;;10.52;2.40;;;14.40;76.60;;;;;;5022580;28;20050;-63
2022/11/09 07:10:10;;;;;;;8.55;2.28;;;14.50;77.30;;;;;;5025783;28;20462;-63
2022/11/09 07:12:36;;;;;;;9.73;2.33;;;14.50;76.70;;;;;;5015752;28;20040;-63
2022/11/09 07:15:03;;;;;;;8.35;2.22;;;14.40;76.60;;;;;;5014566;28;20034;-64
2022/11/09 07:17:30;;;;;;;7.97;2.05;;;14.50;76.60;;;;;;5013954;28;20029;-64
2022/11/09 07:19:55;;;;;;;6.50;2.30;;;14.50;76.60;;;;;;5014413;28;20033;-63
2022/11/09 07:22:21;;;;;;;7.18;2.30;;;14.40;76.70;;;;;;5014270;28;20038;-63
2022/11/09 07:24:47;;;;;;;9.82;2.38;;;14.40;76.70;;;;;;5013361;28;20097;-63
2022/11/09 07:27:12;;;;;;;6.65;1.85;;;14.40;76.70;;;;;;5013241;28;20030;-64
2022/11/09 07:29:38;;;;;;;8.10;2.03;;;14.40;76.70;;;;;;5014872;28;20172;-64
2022/11/09 07:32:04;;;;;;;10.23;2.13;;;14.40;76.70;;;;;;5015248;28;20038;-64
2022/11/09 07:34:29;;;;;;;8.10;2.10;;;14.50;76.70;;;;;;5013954;28;20030;-63
2022/11/09 07:36:55;;;;;;;8.07;1.90;;;14.40;77.20;;;;;;5016746;28;20030;-63
2022/11/09 07:39:21;;;;;;;9.15;2.05;;;14.40;76.60;;;;;;5014351;28;20025;-64
2022/11/09 07:41:47;;;;;;;7.47;2.45;;;14.40;76.60;;;;;;5014609;28;20033;-63
2022/11/09 07:44:17;;;;;;;7.53;2.22;;;14.50;76.70;;;;;;5013913;28;20029;-64
2022/11/09 07:46:45;;;;;;;7.03;1.90;;;14.50;76.70;;;;;;5013544;28;20108;-64
2022/11/09 07:49:12;;;;;;;9.18;2.35;;;14.50;76.60;;;;;;5029434;28;20044;-63
2022/11/09 07:51:38;;;;;;;6.03;2.15;;;14.60;76.60;;;;;;5015079;28;20109;-64
2022/11/09 07:54:04;;;;;;;6.43;1.92;;;14.50;76.50;;;;;;5012962;28;20433;-63
2022/11/09 07:56:30;;;;;;;6.05;1.67;;;14.50;76.50;;;;;;5010487;28;20106;-64
2022/11/09 07:58:55;;;;;;;5.90;2.15;;;14.60;76.50;;;;;;5010538;28;20038;-64
2022/11/09 08:01:21;;;;;;;5.75;1.88;;;14.60;76.50;;;;;;5013611;28;20030;-64
2022/11/09 08:03:46;;;;;;;8.55;2.00;;;14.60;76.50;;;;;;5014042;28;20034;-63
2022/11/09 08:06:12;;;;;;;5.75;1.90;;;14.60;76.40;;;;;;5014400;28;20026;-63
2022/11/09 08:08:38;;;;;;;8.85;2.58;;;14.60;76.40;;;;;;5020066;28;20036;-63
2022/11/09 08:11:04;;;;;;;9.95;2.33;;;14.70;76.40;;;;;;5016946;28;20040;-63
2022/11/09 08:13:30;;;;;;;9.10;2.20;;;14.70;76.40;;;;;;5018820;28;20092;-63
2022/11/09 08:15:55;;;;;;;8.23;2.28;;;14.70;76.40;;;;;;5023452;28;20359;-63
2022/11/09 08:18:22;;;;;;;7.93;2.38;;;14.70;76.40;;;;;;5017144;28;20034;-63
2022/11/09 08:20:48;;;;;;;10.07;2.00;;;14.70;76.40;;;;;;5018074;28;20100;-63
2022/11/09 08:23:16;;;;;;;7.60;2.00;;;14.70;76.60;;;;;;5017546;28;20443;-63
2022/11/09 08:25:42;;;;;;;8.57;2.78;;;14.80;76.30;;;;;;5024679;28;20408;-63
2022/11/09 08:28:08;;;;;;;7.95;2.40;;;14.80;76.20;;;;;;5015415;28;20041;-63
2022/11/09 08:30:34;;;;;;;6.68;2.35;;;14.80;76.10;;;;;;5029172;28;20374;-63
2022/11/09 08:33:01;;;;;;;9.25;2.35;;;14.90;76.00;;;;;;5014471;28;20029;-63
2022/11/09 08:35:28;;;;;;;11.82;2.70;;;14.90;75.90;;;;;;5023308;28;20022;-63
2022/11/09 08:37:54;;;;;;;8.98;1.80;;;15.00;75.70;;;;;;5033545;28;20167;-63
2022/11/09 08:40:22;;;;;;;9.48;2.50;;;15.10;75.70;;;;;;5030459;28;20522;-63
2022/11/09 08:42:47;;;;;;;7.93;2.10;;;15.10;75.40;;;;;;5037501;28;20026;-63
2022/11/09 08:45:14;;;;;;;9.90;1.85;;;15.20;75.20;;;;;;5019199;28;20486;-63
2022/11/09 08:47:40;;;;;;;9.43;2.10;;;15.30;75.20;;;;;;5033740;28;20033;-63
2022/11/09 08:50:06;;;;;;;6.40;1.92;;;15.30;75.00;;;;;;5031599;28;20037;-63
2022/11/09 08:52:33;;;;;;;7.75;2.65;;;15.40;74.90;;;;;;5023578;28;20033;-63
2022/11/09 08:54:59;;;;;;;7.32;2.30;;;15.40;74.70;;;;;;5028454;28;20041;-63
2022/11/09 08:57:25;;;;;;;11.48;2.13;;;15.50;74.60;;;;;;5032286;28;20091;-63
2022/11/09 08:59:50;;;;;;;8.43;2.03;;;15.50;74.50;;;;;;5026227;28;20030;-63
2022/11/09 09:02:16;;;;;;;8.00;2.38;;;15.50;74.30;;;;;;5034627;28;20049;-63
2022/11/09 09:04:42;;;;;;;9.90;2.33;;;15.50;74.20;;;;;;5021439;28;20113;-63
2022/11/09 09:07:09;;;;;;;8.38;2.03;;;15.50;74.90;;;;;;5027074;28;20080;-63
2022/11/09 09:09:37;;;;;;;8.30;1.70;;;15.50;74.20;;;;;;5021510;28;20034;-63
2022/11/09 09:12:06;;;;;;;9.95;1.95;;;15.50;74.10;;;;;;5037451;28;20036;-63
2022/11/09 09:14:33;;;;;;;10.20;2.45;;;15.60;73.90;;;;;;5031668;28;20037;-63
2022/11/09 09:16:59;;;;;;;8.27;2.03;;;15.60;73.60;;;;;;5037298;28;20033;-63
2022/11/09 09:19:24;;;;;;;8.07;2.10;;;15.70;73.50;;;;;;5022457;28;20032;-63
2022/11/09 09:21:50;;;;;;;5.97;2.15;;;15.70;73.40;;;;;;5010536;28;20132;-63
2022/11/09 09:24:16;;;;;;;6.55;1.67;;;15.70;73.30;;;;;;5031918;28;20358;-63
2022/11/09 09:26:43;;;;;;;13.07;2.72;;;15.70;74.00;;;;;;5030162;28;20022;-63
2022/11/09 09:29:10;;;;;;;8.27;2.00;;;15.70;73.30;;;;;;5017936;28;20354;-63
2022/11/09 09:31:36;;;;;;;6.95;2.00;;;15.80;73.20;;;;;;5012758;28;20312;-63
2022/11/09 09:34:02;;;;;;;9.65;2.17;;;15.90;73.00;;;;;;5030483;28;20040;-63
2022/11/09 09:36:28;;;;;;;7.50;2.17;;;16.00;72.70;;;;;;5027527;28;20045;-63
2022/11/09 09:38:54;;;;;;;7.43;1.83;;;16.10;72.40;;;;;;5021740;28;20040;-63
2022/11/09 09:41:38;;;;;;;9.20;2.10;;;16.10;72.10;;;;;;5025829;28;20026;-63
2022/11/09 09:44:24;;;;;;;9.68;2.08;;;16.20;71.90;;;;;;5019316;28;20056;-63
2022/11/09 09:47:11;;;;;;;6.22;1.80;;;16.30;71.60;;;;;;5018692;28;20034;-63
2022/11/09 09:49:45;;;;;;;8.18;2.20;;;16.40;71.30;;;;;;5010300;28;20037;-63
2022/11/09 09:52:33;;;;;;;7.65;2.05;;;16.40;71.20;;;;;;5034965;28;20033;-63
2022/11/09 09:55:11;;;;;;;9.77;2.08;;;16.40;71.10;;;;;;5009017;28;20053;-63
2022/11/09 09:57:37;;;;;;;8.50;2.20;;;16.40;71.00;;;;;;5002394;28;20046;-63
2022/11/09 10:00:07;;;;;;;9.23;2.13;;;16.50;70.90;;;;;;5002019;28;20100;-63
2022/11/09 10:02:37;;;;;;;7.13;1.70;;;16.60;70.60;;;;;;4998849;28;20095;-63
2022/11/09 10:05:10;;;;;;;8.88;2.35;;;16.80;70.40;;;;;;5001132;28;20057;-65
2022/11/09 10:07:45;;;;;;;8.27;2.22;;;16.80;69.90;;;;;;5003588;28;20109;-63
2022/11/09 10:10:35;;;;;;;8.35;1.88;;;16.80;69.70;;;;;;5000267;28;20035;-63
2022/11/09 10:13:19;;;;;;;7.15;1.90;;;16.80;69.60;;;;;;5002020;28;20049;-63
2022/11/09 10:16:04;;;;;;;8.27;1.85;;;16.80;69.80;;;;;;5006857;28;20088;-63
2022/11/09 10:18:48;;;;;;;8.80;2.28;;;16.60;69.70;;;;;;5005277;28;20082;-63
2022/11/09 10:21:35;;;;;;;6.70;1.70;;;16.60;69.80;;;;;;4990877;28;20146;-62
2022/11/09 10:24:37;;;;;;;6.75;1.60;;;16.60;69.70;;;;;;5010095;28;20046;-63
2022/11/09 10:27:28;;;;;;;5.85;1.75;;;16.70;69.50;;;;;;5000883;28;20447;-62
2022/11/09 10:29:55;;;;;;;7.47;1.80;;;16.80;69.30;;;;;;5014492;28;20117;-62
2022/11/09 10:32:23;;;;;;;7.80;1.85;;;16.80;69.30;;;;;;5006164;28;20153;-63
2022/11/09 10:35:00;;;;;;;8.77;1.88;;;16.90;69.20;;;;;;5030631;28;20053;-63
2022/11/09 10:37:37;;;;;;;7.32;1.70;;;17.00;69.00;;;;;;5021691;28;20045;-63
2022/11/09 10:40:30;;;;;;;8.10;1.95;;;17.10;68.80;;;;;;5035764;28;20039;-63
2022/11/09 10:43:14;;;;;;;8.40;1.85;;;17.30;68.30;;;;;;5017357;28;20366;-63
2022/11/09 10:46:04;;;;;;;5.90;2.00;;;17.40;68.60;;;;;;5028900;28;20116;-63
2022/11/09 10:48:49;;;;;;;6.07;1.45;;;17.40;67.70;;;;;;5027475;28;20040;-63
2022/11/09 10:51:42;;;;;;;9.77;2.08;;;17.30;67.70;;;;;;5026689;28;20117;-63
2022/11/09 10:54:36;;;;;;;7.43;2.00;;;17.20;67.70;;;;;;5021247;28;20470;-63
2022/11/09 10:57:23;;;;;;;8.07;1.83;;;17.10;68.00;;;;;;5027358;28;20048;-63
2022/11/09 11:00:16;;;;;;;7.45;2.38;;;17.10;67.80;;;;;;5035411;28;20056;-63
2022/11/09 11:03:16;;;;;;;5.78;1.50;;;17.00;67.70;;;;;;5031166;28;20085;-63
2022/11/09 11:06:03;;;;;;;9.13;1.65;;;16.90;67.90;;;;;;5018008;28;20045;-64
2022/11/09 11:09:05;;;;;;;7.85;1.75;;;16.80;68.10;;;;;;5018456;28;20040;-63
2022/11/09 11:12:12;;;;;;;5.70;1.65;;;16.80;68.00;;;;;;5035280;28;20087;-63
2022/11/09 11:14:57;;;;;;;7.40;1.58;;;16.70;67.90;;;;;;5012256;28;20037;-63
2022/11/09 11:17:42;;;;;;;10.82;2.03;;;16.60;68.10;;;;;;5010458;28;20043;-63
2022/11/09 11:20:31;;;;;;;7.07;1.65;;;16.60;68.30;;;;;;5020151;28;20137;-63
2022/11/09 11:23:21;;;;;;;5.07;1.45;;;16.50;68.30;;;;;;5022513;28;20112;-63
2022/11/09 11:26:33;;;;;;;8.98;1.73;;;16.40;68.40;;;;;;5012677;28;20037;-63
2022/11/09 11:29:30;;;;;;;7.65;1.70;;;16.40;68.60;;;;;;5003974;28;20505;-63
2022/11/09 11:32:16;;;;;;;9.68;1.90;;;16.30;68.60;;;;;;5008379;28;20048;-63
2022/11/09 11:35:04;;;;;;;9.00;1.85;;;16.30;68.70;;;;;;5011071;28;20037;-63
2022/11/09 11:38:03;;;;;;;7.45;2.33;;;16.30;68.80;;;;;;5002490;28;20359;-62
2022/11/09 11:41:00;;;;;;;5.82;1.63;;;16.20;68.60;;;;;;5016919;28;20495;-63
2022/11/09 11:44:07;;;;;;;7.85;1.98;;;16.20;68.60;;;;;;5015059;28;20032;-63
2022/11/09 11:47:19;;;;;;;8.43;2.47;;;16.20;68.50;;;;;;5024729;28;20040;-63
2022/11/09 11:50:32;;;;;;;7.97;2.08;;;16.30;68.40;;;;;;5007080;28;20037;-63
2022/11/09 11:53:41;;;;;;;6.57;1.55;;;16.20;69.00;;;;;;5014212;28;20108;-64
2022/11/09 11:56:43;;;;;;;7.47;1.73;;;16.20;68.40;;;;;;5021061;28;20048;-63
2022/11/09 11:59:51;;;;;;;7.03;1.63;;;16.20;68.40;;;;;;5021297;28;20080;-63
2022/11/09 12:03:07;;;;;;;8.23;1.70;;;16.20;68.30;;;;;;5033055;28;20056;-63
2022/11/09 12:06:23;;;;;;;5.03;1.48;;;16.30;68.20;;;;;;5023479;28;20366;-63
2022/11/09 12:09:10;;;;;;;8.15;1.45;;;16.30;68.30;;;;;;5013130;28;20053;-63
2022/11/09 12:12:06;;;;;;;8.32;1.60;;;16.20;68.20;;;;;;5010511;28;20080;-64
2022/11/09 12:14:59;;;;;;;4.40;1.73;;;16.30;68.10;;;;;;5008148;28;20119;-63
2022/11/09 12:17:59;;;;;;;4.35;1.30;;;16.20;68.00;;;;;;5017526;28;20068;-63
2022/11/09 12:21:05;;;;;;;6.97;1.92;;;16.30;68.60;;;;;;5017987;28;20041;-63
2022/11/09 12:24:07;;;;;;;7.78;1.52;;;16.20;67.70;;;;;;5009189;28;20104;-63
2022/11/09 12:27:19;;;;;;;6.25;1.52;;;16.20;67.80;;;;;;5018553;28;20363;-64
2022/11/09 12:30:20;;;;;;;7.28;1.52;;;16.20;67.70;;;;;;5021130;28;20581;-63
2022/11/09 12:33:40;;;;;;;7.47;2.03;;;16.20;67.80;;;;;;5008508;28;20104;-63
2022/11/09 12:36:39;;;;;;;5.47;1.63;;;16.20;67.70;;;;;;5017361;28;20387;-63
2022/11/09 12:40:00;;;;;;;6.35;1.67;;;16.20;67.50;;;;;;5018930;28;20040;-63
2022/11/09 12:42:50;;;;;;;7.45;1.50;;;16.30;67.50;;;;;;5018626;28;20040;-63
2022/11/09 12:45:38;;;;;;;4.85;1.40;;;16.30;67.30;;;;;;5025602;28;20117;-63
2022/11/09 12:48:31;;;;;;;10.07;1.95;;;16.30;67.30;;;;;;5012449;28;20039;-63
2022/11/09 12:51:16;;;;;;;5.35;1.30;;;16.30;67.30;;;;;;5016637;28;20396;-63
2022/11/09 12:54:10;;;;;;;3.60;1.30;;;16.20;67.30;;;;;;5003660;28;20107;-64
2022/11/09 12:57:20;;;;;;;9.38;2.50;;;16.20;67.30;;;;;;5022226;28;20037;-63
2022/11/09 13:00:05;;;;;;;4.07;1.38;;;16.20;67.30;;;;;;5029585;28;20091;-64
2022/11/09 13:02:56;;;;;;;6.38;1.40;;;16.30;67.40;;;;;;5038218;28;20070;-63
2022/11/09 13:05:42;;;;;;;7.30;1.40;;;16.30;67.10;;;;;;5036340;28;20037;-63
2022/11/09 13:08:30;;;;;;;8.57;1.50;;;16.30;67.20;;;;;;5037752;28;20096;-63
2022/11/09 13:11:40;;;;;;;5.40;1.48;;;16.30;67.20;;;;;;5038041;28;20043;-63
2022/11/09 13:14:27;;;;;;;5.60;1.48;;;16.20;67.10;;;;;;5019965;28;20033;-63
2022/11/09 13:17:24;;;;;;;4.80;1.40;;;16.20;67.20;;;;;;5035524;28;20041;-63